Time;durP1;ratioP1;P1;durP2;ratioP2;P2;SDS_P1;SDS_P2;PMS_P1;PMS_P2;Temp;Humidity;BMP_temperature;BMP_pressure;BME280_temperature;BME280_humidity;BME280_pressure;Samples;Min_cycle;Max_cycle;Signal;HPM_P1;HPM_P2
2021/04/25 00:00:40;;;;;;;12.40;7.82;;;;;;;6.68;100.00;96542.09;5057101;28;20418;-51
2021/04/25 00:03:07;;;;;;;11.23;7.72;;;;;;;6.59;100.00;96543.63;5038722;28;20079;-54
2021/04/25 00:05:35;;;;;;;14.32;8.07;;;;;;;6.49;100.00;96547.91;5043100;28;20072;-56
2021/04/25 00:08:06;;;;;;;13.00;8.32;;;;;;;6.39;100.00;96545.16;5045616;28;20064;-51
2021/04/25 00:10:34;;;;;;;15.68;8.32;;;;;;;6.00;100.00;96540.31;5045651;28;20064;-55
2021/04/25 00:13:01;;;;;;;12.35;7.82;;;;;;;6.04;100.00;96544.34;5044693;28;20077;-53
2021/04/25 00:15:30;;;;;;;12.00;8.00;;;;;;;6.11;100.00;96538.53;5053972;28;20538;-54
2021/04/25 00:17:58;;;;;;;15.15;9.20;;;;;;;6.30;100.00;96535.38;5034697;28;20075;-50
2021/04/25 00:20:25;;;;;;;14.27;8.43;;;;;;;6.26;100.00;96535.72;5048729;28;20148;-52
2021/04/25 00:22:53;;;;;;;17.23;9.27;;;;;;;6.09;100.00;96532.59;5040824;28;20073;-52
2021/04/25 00:25:20;;;;;;;17.63;9.40;;;;;;;5.79;100.00;96540.09;5044930;28;20531;-53
2021/04/25 00:27:48;;;;;;;15.45;9.23;;;;;;;5.90;100.00;96533.09;5049960;28;20080;-56
2021/04/25 00:30:20;;;;;;;14.80;8.68;;;;;;;5.94;100.00;96528.50;5049842;28;20069;-54
2021/04/25 00:32:48;;;;;;;15.32;8.52;;;;;;;6.11;100.00;96524.63;5035122;28;20069;-53
2021/04/25 00:35:17;;;;;;;15.05;8.82;;;;;;;6.21;100.00;96525.59;5045770;28;20447;-49
2021/04/25 00:37:45;;;;;;;15.65;9.48;;;;;;;6.26;100.00;96528.69;5043862;28;20534;-51
2021/04/25 00:40:14;;;;;;;16.10;8.70;;;;;;;6.28;100.00;96518.94;5042708;28;20512;-48
2021/04/25 00:42:44;;;;;;;14.50;8.30;;;;;;;6.42;100.00;96520.50;5043810;28;20051;-52
2021/04/25 00:45:13;;;;;;;15.50;8.70;;;;;;;6.52;100.00;96523.25;5046705;28;20068;-52
2021/04/25 00:47:42;;;;;;;14.73;8.87;;;;;;;6.52;100.00;96518.84;5041889;28;20470;-54
2021/04/25 00:50:12;;;;;;;14.80;9.13;;;;;;;6.32;100.00;96523.00;5043581;28;20704;-51
2021/04/25 00:52:43;;;;;;;14.82;8.73;;;;;;;6.30;100.00;96518.84;5040625;28;20057;-52
2021/04/25 00:55:12;;;;;;;13.80;8.68;;;;;;;6.28;100.00;96518.13;5044297;28;20092;-53
2021/04/25 00:57:39;;;;;;;13.32;8.43;;;;;;;6.24;100.00;96520.13;5041398;28;20075;-51
2021/04/25 01:00:09;;;;;;;16.88;8.50;;;;;;;6.28;100.00;96513.72;5048692;28;20090;-51
2021/04/25 01:02:37;;;;;;;14.57;9.10;;;;;;;6.27;100.00;96514.66;5040098;28;20648;-53
2021/04/25 01:05:07;;;;;;;14.02;8.23;;;;;;;6.35;100.00;96512.28;5049806;28;20064;-48
2021/04/25 01:07:36;;;;;;;12.00;8.27;;;;;;;6.29;100.00;96515.38;5036052;28;20067;-52
2021/04/25 01:10:05;;;;;;;13.55;8.07;;;;;;;6.30;100.00;96519.66;5044674;28;20219;-54
2021/04/25 01:12:33;;;;;;;14.18;8.05;;;;;;;6.19;100.00;96514.41;5043978;28;20072;-53
2021/04/25 01:15:01;;;;;;;13.05;8.65;;;;;;;6.26;100.00;96526.06;5039080;28;20075;-49
2021/04/25 01:17:29;;;;;;;12.60;7.82;;;;;;;6.19;100.00;96527.50;5043380;28;20076;-54
2021/04/25 01:19:58;;;;;;;15.98;8.63;;;;;;;6.24;100.00;96524.53;5053848;28;20071;-51
2021/04/25 01:22:26;;;;;;;16.23;8.80;;;;;;;6.21;100.00;96520.38;5035934;28;20435;-55
2021/04/25 01:24:54;;;;;;;18.50;9.20;;;;;;;6.21;100.00;96522.97;5041463;28;20755;-51
2021/04/25 01:27:22;;;;;;;15.23;9.18;;;;;;;6.29;100.00;96522.38;5040046;28;20451;-53
2021/04/25 01:29:49;;;;;;;11.52;8.55;;;;;;;6.26;100.00;96517.38;5035711;28;20646;-49
2021/04/25 01:32:16;;;;;;;15.57;9.07;;;;;;;6.32;100.00;96519.53;5039992;28;20515;-51
2021/04/25 01:34:44;;;;;;;17.05;9.00;;;;;;;6.24;100.00;96522.75;5055608;28;20090;-50
2021/04/25 01:37:11;;;;;;;14.20;8.93;;;;;;;6.21;100.00;96525.59;5042543;28;20068;-51
2021/04/25 01:39:40;;;;;;;15.30;9.27;;;;;;;6.12;100.00;96531.53;5055642;28;20088;-51
2021/04/25 01:42:07;;;;;;;15.45;9.00;;;;;;;6.16;100.00;96527.75;5038967;28;20071;-52
2021/04/25 01:44:35;;;;;;;16.13;9.68;;;;;;;6.17;100.00;96529.41;5034566;28;20072;-49
2021/04/25 01:47:02;;;;;;;13.93;8.80;;;;;;;6.09;100.00;96524.75;5042944;28;20068;-51
2021/04/25 01:49:30;;;;;;;17.25;9.02;;;;;;;6.17;100.00;96521.56;5043127;28;20068;-52
2021/04/25 01:51:57;;;;;;;15.38;9.85;;;;;;;6.15;100.00;96521.66;5036524;28;20077;-54
2021/04/25 01:54:24;;;;;;;12.15;8.98;;;;;;;6.17;100.00;96521.56;5047131;28;20256;-53
2021/04/25 01:56:53;;;;;;;14.68;9.10;;;;;;;6.11;100.00;96525.44;5040976;28;20071;-52
2021/04/25 01:59:21;;;;;;;12.52;8.85;;;;;;;6.15;100.00;96532.13;5046373;28;20069;-52
2021/04/25 02:01:51;;;;;;;14.98;9.52;;;;;;;6.13;100.00;96527.97;5048688;28;20061;-54
2021/04/25 02:04:18;;;;;;;18.52;10.02;;;;;;;6.06;100.00;96529.38;5055909;28;20068;-52
2021/04/25 02:06:46;;;;;;;15.55;9.52;;;;;;;6.15;100.00;96526.06;5039817;28;20077;-53
2021/04/25 02:09:14;;;;;;;14.55;9.27;;;;;;;6.14;100.00;96527.00;5054962;28;20068;-55
2021/04/25 02:11:41;;;;;;;15.63;9.15;;;;;;;6.10;100.00;96521.19;5038064;28;20076;-49
2021/04/25 02:14:10;;;;;;;15.73;9.40;;;;;;;6.10;100.00;96525.59;5048654;28;20060;-51
2021/04/25 02:16:37;;;;;;;15.18;9.20;;;;;;;6.16;100.00;96525.97;5047581;28;20541;-53
2021/04/25 02:19:05;;;;;;;13.02;9.18;;;;;;;6.24;100.00;96529.78;5051782;28;20080;-50
2021/04/25 02:21:32;;;;;;;14.52;9.27;;;;;;;6.26;100.00;96530.47;5040336;28;20096;-53
2021/04/25 02:24:00;;;;;;;14.25;8.63;;;;;;;6.22;100.00;96535.13;5051613;28;20072;-56
2021/04/25 02:26:27;;;;;;;13.25;9.25;;;;;;;6.19;100.00;96527.50;5047712;28;20079;-54
2021/04/25 02:28:55;;;;;;;14.95;9.23;;;;;;;6.27;100.00;96527.75;5042268;28;20720;-54
2021/04/25 02:31:24;;;;;;;14.43;8.55;;;;;;;6.08;100.00;96538.78;5049420;28;20068;-53
2021/04/25 02:33:51;;;;;;;12.02;8.60;;;;;;;5.63;100.00;96532.53;5041981;28;20535;-57
2021/04/25 02:36:20;;;;;;;13.30;8.73;;;;;;;5.67;100.00;96526.09;5054133;28;20122;-52
2021/04/25 02:38:47;;;;;;;16.90;8.65;;;;;;;5.65;100.00;96538.47;5051861;28;20057;-54
2021/04/25 02:41:15;;;;;;;13.82;8.40;;;;;;;5.69;100.00;96540.75;5043601;28;20095;-48
2021/04/25 02:43:42;;;;;;;14.30;7.95;;;;;;;5.69;100.00;96542.53;5047860;28;20061;-54
2021/04/25 02:46:10;;;;;;;15.63;9.38;;;;;;;5.61;100.00;96532.66;5049197;28;20486;-50
2021/04/25 02:48:38;;;;;;;15.65;8.80;;;;;;;5.37;100.00;96539.66;5045621;28;20081;-51
2021/04/25 02:51:05;;;;;;;13.55;8.48;;;;;;;5.22;100.00;96539.78;5053511;28;20688;-54
2021/04/25 02:53:33;;;;;;;12.65;8.27;;;;;;;4.97;100.00;96547.72;5050601;28;20073;-52
2021/04/25 02:56:01;;;;;;;12.73;8.48;;;;;;;4.87;100.00;96549.28;5040172;28;20077;-49
2021/04/25 02:58:28;;;;;;;12.45;8.38;;;;;;;4.52;100.00;96547.34;5053431;28;20072;-51
2021/04/25 03:00:56;;;;;;;12.82;8.32;;;;;;;4.61;100.00;96546.72;5048360;28;20091;-52
2021/04/25 03:03:25;;;;;;;14.52;8.80;;;;;;;4.80;100.00;96535.81;5045491;28;20535;-51
2021/04/25 03:05:55;;;;;;;14.88;10.10;;;;;;;4.87;100.00;96539.69;5055619;28;20076;-55
2021/04/25 03:08:23;;;;;;;15.73;9.50;;;;;;;4.92;100.00;96539.34;5054726;28;20064;-54
2021/04/25 03:10:51;;;;;;;17.08;9.95;;;;;;;4.88;100.00;96533.50;5041602;28;20554;-50
2021/04/25 03:13:18;;;;;;;13.70;9.90;;;;;;;4.80;100.00;96528.00;5051896;28;20211;-53
2021/04/25 03:15:46;;;;;;;16.25;9.63;;;;;;;4.83;100.00;96530.38;5041779;28;20087;-54
2021/04/25 03:18:13;;;;;;;14.52;9.68;;;;;;;4.78;100.00;96531.66;5047092;28;20493;-53
2021/04/25 03:20:41;;;;;;;15.27;10.05;;;;;;;4.71;100.00;96537.31;5043829;28;20071;-49
2021/04/25 03:23:27;;;;;;;16.25;10.35;;;;;;;4.61;100.00;96532.81;5037617;28;20077;-54
2021/04/25 03:25:55;;;;;;;17.33;10.07;;;;;;;4.79;100.00;96536.78;5039074;28;20065;-51
2021/04/25 03:28:22;;;;;;;18.00;10.32;;;;;;;4.63;100.00;96544.00;5048272;28;20092;-52
2021/04/25 03:30:50;;;;;;;13.10;9.48;;;;;;;4.50;100.00;96542.22;5045359;28;20072;-53
2021/04/25 03:33:18;;;;;;;14.45;9.32;;;;;;;4.57;100.00;96539.19;5043110;28;20068;-54
2021/04/25 03:35:45;;;;;;;14.35;9.00;;;;;;;4.65;100.00;96539.53;5057492;28;20076;-50
2021/04/25 03:38:13;;;;;;;15.30;9.60;;;;;;;4.72;100.00;96538.16;5047392;28;20561;-51
2021/04/25 03:40:41;;;;;;;13.32;9.45;;;;;;;4.56;100.00;96538.38;5046362;28;20793;-54
2021/04/25 03:43:09;;;;;;;16.90;9.27;;;;;;;4.60;100.00;96547.66;5046517;28;20531;-49
2021/04/25 03:45:36;;;;;;;15.85;8.98;;;;;;;4.71;100.00;96541.69;5041237;28;20083;-51
2021/04/25 03:48:04;;;;;;;15.68;8.90;;;;;;;4.72;100.00;96536.38;5042533;28;20550;-49
2021/04/25 03:50:32;;;;;;;12.55;9.25;;;;;;;4.74;100.00;96534.47;5054945;28;20586;-49
2021/04/25 03:52:59;;;;;;;15.43;9.73;;;;;;;4.73;100.00;96531.97;5047511;28;20076;-53
2021/04/25 03:55:27;;;;;;;16.30;10.02;;;;;;;4.79;100.00;96533.34;5045207;28;20069;-51
2021/04/25 03:57:57;;;;;;;13.90;9.45;;;;;;;4.76;100.00;96531.75;5046177;28;20086;-54
2021/04/25 04:00:24;;;;;;;15.30;10.05;;;;;;;4.83;100.00;96527.78;5036079;28;20136;-51
2021/04/25 04:02:52;;;;;;;20.10;9.95;;;;;;;4.79;100.00;96539.38;5043697;28;20057;-51
2021/04/25 04:05:20;;;;;;;15.00;9.60;;;;;;;4.87;100.00;96529.22;5062872;28;20075;-57
2021/04/25 04:07:47;;;;;;;20.90;10.25;;;;;;;4.90;100.00;96528.19;5042520;28;20485;-51
2021/04/25 04:10:16;;;;;;;23.08;10.65;;;;;;;5.06;100.00;96525.31;5051253;28;20092;-54
2021/04/25 04:12:43;;;;;;;13.38;9.48;;;;;;;5.03;100.00;96525.56;5047159;28;20534;-54
2021/04/25 04:15:12;;;;;;;14.07;9.55;;;;;;;4.96;100.00;96541.66;5037451;28;20483;-57
2021/04/25 04:17:40;;;;;;;13.68;9.13;;;;;;;4.96;100.00;96539.03;5051577;28;20061;-52
2021/04/25 04:20:08;;;;;;;17.75;9.63;;;;;;;4.80;100.00;96545.44;5054539;28;20466;-51
2021/04/25 04:22:36;;;;;;;15.50;9.77;;;;;;;4.29;100.00;96546.31;5039853;28;20076;-51
2021/04/25 04:25:04;;;;;;;15.70;9.30;;;;;;;4.43;100.00;96540.13;5046011;28;20089;-51
2021/04/25 04:27:31;;;;;;;13.93;9.05;;;;;;;4.53;100.00;96539.41;5045119;28;20510;-55
2021/04/25 04:29:59;;;;;;;18.95;10.15;;;;;;;4.71;100.00;96534.72;5040183;28;20068;-54
2021/04/25 04:32:27;;;;;;;14.77;10.95;;;;;;;4.92;100.00;96531.50;5053209;28;21684;-53
2021/04/25 04:34:56;;;;;;;17.63;10.67;;;;;;;4.91;100.00;96540.31;5043725;28;20462;-49
2021/04/25 04:37:23;;;;;;;17.75;11.13;;;;;;;5.04;100.00;96548.13;5039502;28;20511;-57
2021/04/25 04:39:51;;;;;;;18.35;11.75;;;;;;;5.21;100.00;96542.53;5050538;28;20479;-55
2021/04/25 04:42:19;;;;;;;19.98;11.77;;;;;;;5.27;100.00;96544.72;5041623;28;20085;-55
2021/04/25 04:44:46;;;;;;;17.85;11.95;;;;;;;5.26;100.00;96550.88;5036759;28;20080;-53
2021/04/25 04:47:14;;;;;;;17.70;12.05;;;;;;;5.32;100.00;96553.03;5035472;28;20562;-48
2021/04/25 04:49:43;;;;;;;18.80;12.10;;;;;;;5.11;100.00;96565.03;5037019;28;20071;-52
2021/04/25 04:52:10;;;;;;;21.33;12.38;;;;;;;5.36;100.00;96554.50;5039920;28;20153;-52
2021/04/25 04:54:38;;;;;;;15.65;12.40;;;;;;;6.46;100.00;96563.84;5050802;28;20081;-50
2021/04/25 04:57:06;;;;;;;19.00;11.93;;;;;;;7.78;100.00;96548.25;5038497;28;20077;-50
2021/04/25 04:59:33;;;;;;;16.25;11.35;;;;;;;8.62;100.00;96557.00;5032621;28;20075;-53
2021/04/25 05:02:00;;;;;;;14.20;10.48;;;;;;;8.55;98.82;96556.69;5053585;28;20096;-51
2021/04/25 05:04:28;;;;;;;16.50;9.88;;;;;;;9.09;94.49;96553.91;5045225;28;20087;-53
2021/04/25 05:06:56;;;;;;;14.75;10.20;;;;;;;9.26;89.95;96555.91;5050633;28;20488;-51
2021/04/25 05:09:24;;;;;;;14.60;11.00;;;;;;;9.04;95.58;96564.81;5045681;28;20301;-49
2021/04/25 05:11:51;;;;;;;15.52;11.13;;;;;;;9.43;92.70;96564.97;5039584;28;20534;-55
2021/04/25 05:14:19;;;;;;;16.27;10.90;;;;;;;9.67;91.17;96564.56;5033990;28;20470;-51
2021/04/25 05:16:46;;;;;;;17.52;11.23;;;;;;;10.10;84.96;96566.00;5051698;28;20071;-51
2021/04/25 05:19:13;;;;;;;17.50;10.82;;;;;;;10.63;80.72;96568.16;5037887;28;20076;-50
2021/04/25 05:21:41;;;;;;;16.88;10.07;;;;;;;11.85;69.97;96561.81;5057455;28;20496;-51
2021/04/25 05:24:10;;;;;;;18.42;11.15;;;;;;;12.87;62.84;96567.56;5042458;28;20069;-48
2021/04/25 05:26:38;;;;;;;14.05;11.32;;;;;;;12.55;66.00;96575.13;5036827;28;20064;-56
2021/04/25 05:29:06;;;;;;;20.02;12.45;;;;;;;12.71;63.27;96573.59;5058570;28;20068;-50
2021/04/25 05:31:33;;;;;;;18.05;13.00;;;;;;;12.67;63.74;96588.13;5040622;28;20063;-51
2021/04/25 05:34:01;;;;;;;19.90;13.85;;;;;;;10.97;74.52;96586.97;5050684;28;20084;-54
2021/04/25 05:36:28;;;;;;;20.38;14.98;;;;;;;9.72;86.36;96593.97;5054169;28;20080;-51
2021/04/25 05:38:56;;;;;;;22.70;15.32;;;;;;;9.41;91.11;96601.09;5033781;28;20061;-49
2021/04/25 05:41:25;;;;;;;23.17;15.73;;;;;;;9.12;95.77;96607.09;5048779;28;20076;-50
2021/04/25 05:43:52;;;;;;;24.75;16.10;;;;;;;8.82;97.60;96610.53;5044895;28;20068;-49
2021/04/25 05:46:21;;;;;;;21.05;16.00;;;;;;;9.13;96.37;96611.38;5041111;28;20069;-49
2021/04/25 05:48:49;;;;;;;22.95;16.98;;;;;;;9.34;96.89;96607.84;5056867;28;20456;-48
2021/04/25 05:51:17;;;;;;;23.90;16.00;;;;;;;9.00;98.86;96606.31;5038709;28;20083;-54
2021/04/25 05:53:44;;;;;;;23.05;16.10;;;;;;;9.35;92.65;96606.88;5042887;28;20100;-47
2021/04/25 05:56:12;;;;;;;22.55;15.95;;;;;;;9.17;94.46;96612.78;5033549;28;20081;-49
2021/04/25 05:58:42;;;;;;;24.40;16.73;;;;;;;9.40;94.34;96616.06;5041602;28;20041;-49
2021/04/25 06:01:10;;;;;;;25.15;15.98;;;;;;;9.72;88.65;96615.03;5049513;28;20473;-51
2021/04/25 06:03:37;;;;;;;23.58;15.73;;;;;;;9.31;92.30;96627.38;5041980;28;20091;-51
2021/04/25 06:06:05;;;;;;;21.10;15.80;;;;;;;9.49;90.23;96619.66;5034794;28;20080;-52
2021/04/25 06:08:33;;;;;;;23.80;17.05;;;;;;;9.82;86.69;96628.22;5036909;28;20454;-49
2021/04/25 06:11:00;;;;;;;22.52;16.63;;;;;;;9.81;93.27;96627.41;5044660;28;20072;-48
2021/04/25 06:13:27;;;;;;;22.85;14.80;;;;;;;9.70;87.63;96623.06;5042350;28;20144;-50
2021/04/25 06:15:56;;;;;;;25.42;16.35;;;;;;;10.03;85.29;96623.69;5054283;28;20096;-52
2021/04/25 06:18:23;;;;;;;23.42;16.25;;;;;;;10.12;85.48;96617.59;5039838;28;22055;-50
2021/04/25 06:20:51;;;;;;;25.38;16.67;;;;;;;9.81;88.13;96624.75;5048544;28;20069;-54
2021/04/25 06:23:18;;;;;;;23.83;15.60;;;;;;;9.67;90.21;96630.38;5047353;28;20120;-54
2021/04/25 06:25:46;;;;;;;22.55;15.05;;;;;;;9.92;87.83;96624.63;5045390;28;20068;-52
2021/04/25 06:28:14;;;;;;;22.92;16.25;;;;;;;10.09;86.71;96631.03;5044279;28;20084;-49
2021/04/25 06:30:41;;;;;;;23.52;15.68;;;;;;;9.96;87.63;96628.66;5049419;28;20083;-51
2021/04/25 06:33:10;;;;;;;23.38;16.40;;;;;;;10.16;86.91;96623.41;5038055;28;20071;-50
2021/04/25 06:35:38;;;;;;;26.65;16.65;;;;;;;10.44;83.57;96624.41;5053934;28;20680;-50
2021/04/25 06:38:05;;;;;;;24.23;16.48;;;;;;;10.60;81.99;96623.84;5035934;28;20076;-51
2021/04/25 06:40:36;;;;;;;26.83;18.42;;;;;;;10.63;84.75;96626.19;5034549;28;20072;-49
2021/04/25 06:43:04;;;;;;;;;;;;;;;10.10;83.37;96630.06;5041475;28;20064;-52
2021/04/25 06:45:32;;;;;;;37.22;22.25;;;;;;;10.60;81.37;96629.13;5047551;28;20390;-49
2021/04/25 06:47:59;;;;;;;23.15;15.43;;;;;;;10.63;78.84;96636.72;5053557;28;20068;-54
2021/04/25 06:50:28;;;;;;;22.75;16.65;;;;;;;11.32;74.26;96632.97;5054100;28;20473;-54
2021/04/25 06:52:55;;;;;;;25.20;16.90;;;;;;;11.16;76.23;96634.41;5041101;28;22808;-50
2021/04/25 06:55:24;;;;;;;29.15;21.45;;;;;;;11.29;76.71;96630.63;5055480;28;20068;-54
2021/04/25 06:57:52;;;;;;;175.80;135.77;;;;;;;10.58;78.79;96637.16;5046544;28;20064;-52
2021/04/25 07:00:23;;;;;;;24.67;17.20;;;;;;;10.36;79.34;96629.56;5045673;28;20462;-51
2021/04/25 07:02:53;;;;;;;21.98;16.75;;;;;;;11.43;73.46;96632.78;5052535;28;20076;-51
2021/04/25 07:05:20;;;;;;;64.60;55.53;;;;;;;10.86;82.42;96630.19;5042694;28;20057;-50
2021/04/25 07:07:49;;;;;;;23.60;16.35;;;;;;;11.26;80.53;96638.84;5049224;28;20068;-50
2021/04/25 07:10:17;;;;;;;24.95;15.77;;;;;;;11.82;72.69;96638.69;5056175;28;20067;-52
2021/04/25 07:12:45;;;;;;;24.63;15.75;;;;;;;12.17;67.88;96639.75;5044606;28;20073;-53
2021/04/25 07:15:13;;;;;;;24.77;16.42;;;;;;;11.54;74.64;96647.63;5036296;28;20061;-52
2021/04/25 07:17:41;;;;;;;23.80;15.82;;;;;;;11.75;74.96;96644.72;5040861;28;20095;-50
2021/04/25 07:20:10;;;;;;;24.98;16.65;;;;;;;11.78;75.69;96644.44;5033199;28;20069;-52
2021/04/25 07:22:38;;;;;;;25.30;16.70;;;;;;;12.33;67.56;96639.94;5048752;28;20064;-52
2021/04/25 07:25:09;;;;;;;24.52;19.13;;;;;;;11.96;73.05;96647.16;5039236;28;20057;-53
2021/04/25 07:27:36;;;;;;;21.88;15.13;;;;;;;12.13;71.11;96642.88;5041800;28;20077;-52
2021/04/25 07:30:06;;;;;;;24.35;15.90;;;;;;;12.24;68.98;96640.00;5040186;28;20559;-49
2021/04/25 07:32:34;;;;;;;28.90;17.58;;;;;;;12.21;73.03;96642.94;5041811;28;20060;-49
2021/04/25 07:35:02;;;;;;;22.65;15.98;;;;;;;12.63;67.95;96644.97;5029387;28;20068;-50
2021/04/25 07:37:29;;;;;;;22.92;16.02;;;;;;;12.59;65.66;96645.28;5046375;28;20064;-50
2021/04/25 07:39:57;;;;;;;69.85;33.55;;;;;;;12.16;68.56;96640.75;5041629;28;20068;-51
2021/04/25 07:42:26;;;;;;;28.08;18.20;;;;;;;12.30;64.62;96648.16;5045500;28;20063;-52
2021/04/25 07:44:55;;;;;;;23.85;16.77;;;;;;;12.25;65.77;96652.22;5023745;28;20966;-50
2021/04/25 07:47:22;;;;;;;20.80;14.93;;;;;;;12.87;62.36;96650.47;5040303;28;20068;-50
2021/04/25 07:49:50;;;;;;;22.75;15.07;;;;;;;12.88;62.56;96646.84;5041997;28;20072;-54
2021/04/25 07:52:17;;;;;;;21.23;15.07;;;;;;;13.11;62.35;96646.31;5045363;28;20116;-50
2021/04/25 07:54:45;;;;;;;23.55;16.08;;;;;;;13.32;58.99;96645.97;5044024;28;20061;-49
2021/04/25 07:57:12;;;;;;;45.78;31.52;;;;;;;13.20;62.83;96638.25;5040118;28;20072;-50
2021/04/25 07:59:41;;;;;;;23.63;16.45;;;;;;;13.43;60.87;96638.59;5035252;28;20730;-52
2021/04/25 08:02:08;;;;;;;24.42;15.73;;;;;;;13.25;64.13;96636.03;5034477;28;20076;-52
2021/04/25 08:04:36;;;;;;;22.45;15.50;;;;;;;13.93;55.01;96637.78;5036820;28;20064;-49
2021/04/25 08:07:04;;;;;;;19.58;14.88;;;;;;;13.62;53.32;96642.00;5036295;28;20084;-54
2021/04/25 08:09:32;;;;;;;24.08;16.92;;;;;;;13.78;55.36;96652.66;5040864;28;20077;-50
2021/04/25 08:11:59;;;;;;;25.55;17.58;;;;;;;13.96;56.98;96640.13;5040092;28;20061;-54
2021/04/25 08:14:26;;;;;;;19.50;13.70;;;;;;;14.01;51.70;96645.78;5037599;28;20427;-53
2021/04/25 08:16:55;;;;;;;18.85;13.90;;;;;;;14.08;52.04;96645.16;5032659;28;20057;-57
2021/04/25 08:19:23;;;;;;;21.13;14.10;;;;;;;13.79;51.78;96656.97;5037378;28;20060;-55
2021/04/25 08:21:50;;;;;;;21.13;13.50;;;;;;;14.00;52.26;96653.88;5036733;28;20502;-51
2021/04/25 08:24:18;;;;;;;21.58;13.68;;;;;;;14.25;50.27;96647.69;5022706;28;20530;-51
2021/04/25 08:26:46;;;;;;;19.98;14.50;;;;;;;14.48;48.94;96641.72;5033319;28;20064;-51
2021/04/25 08:29:14;;;;;;;21.88;14.65;;;;;;;14.52;51.06;96643.09;5039327;28;20063;-52
2021/04/25 08:31:41;;;;;;;20.58;14.73;;;;;;;14.42;51.47;96651.19;5036639;28;20057;-55
2021/04/25 08:34:10;;;;;;;23.02;14.50;;;;;;;14.56;54.98;96646.25;5038488;28;20534;-52
2021/04/25 08:36:37;;;;;;;19.55;13.15;;;;;;;14.51;51.21;96648.56;5028641;28;20494;-51
2021/04/25 08:39:05;;;;;;;21.60;13.02;;;;;;;14.76;49.28;96644.91;5040586;28;20495;-52
2021/04/25 08:41:38;;;;;;;22.95;14.48;;;;;;;14.69;48.36;96644.78;5021786;28;20076;-53
2021/04/25 08:44:07;;;;;;;18.48;12.65;;;;;;;14.99;50.18;96639.75;5034529;28;20071;-51
2021/04/25 08:46:35;;;;;;;17.80;12.65;;;;;;;14.72;48.75;96633.81;5036417;28;20068;-50
2021/04/25 08:49:04;;;;;;;20.02;13.15;;;;;;;15.01;47.26;96636.97;5039736;28;20084;-53
2021/04/25 08:51:33;;;;;;;18.60;12.13;;;;;;;14.81;50.23;96645.25;5042962;28;20471;-50
2021/04/25 08:54:00;;;;;;;16.60;11.93;;;;;;;14.63;49.79;96637.47;5032450;28;20506;-56
2021/04/25 08:56:28;;;;;;;20.88;12.85;;;;;;;14.79;48.44;96639.28;5040562;28;21449;-54
2021/04/25 08:58:57;;;;;;;18.08;11.80;;;;;;;14.89;49.50;96637.28;5021236;28;20072;-49
2021/04/25 09:01:25;;;;;;;17.52;11.98;;;;;;;15.10;49.47;96634.09;5034941;28;20061;-50
2021/04/25 09:03:54;;;;;;;17.77;12.50;;;;;;;15.16;46.81;96636.09;5038224;28;20073;-54
2021/04/25 09:06:22;;;;;;;16.27;10.43;;;;;;;15.05;47.73;96630.31;5038825;28;20061;-53
2021/04/25 09:08:53;;;;;;;15.30;10.23;;;;;;;15.18;47.77;96631.44;5042054;28;20067;-49
2021/04/25 09:11:28;;;;;;;16.67;10.07;;;;;;;15.13;48.24;96628.44;5042709;28;20543;-49
2021/04/25 09:14:18;;;;;;;16.42;10.40;;;;;;;15.19;46.19;96633.09;5037364;28;20491;-54
2021/04/25 09:16:57;;;;;;;14.40;9.15;;;;;;;15.07;46.78;96638.91;5034677;28;20079;-52
2021/04/25 09:19:25;;;;;;;17.73;10.73;;;;;;;15.07;47.61;96636.25;5035182;28;20467;-55
2021/04/25 09:21:57;;;;;;;19.00;11.40;;;;;;;14.89;47.69;96639.09;5037870;28;20135;-53
2021/04/25 09:24:27;;;;;;;17.25;11.40;;;;;;;15.62;49.86;96635.47;5042493;28;20533;-56
2021/04/25 09:26:55;;;;;;;17.83;10.23;;;;;;;15.48;46.43;96633.53;5037320;28;20674;-50
2021/04/25 09:29:25;;;;;;;16.05;10.85;;;;;;;15.32;46.82;96637.06;5049440;28;20060;-49
2021/04/25 09:31:53;;;;;;;14.90;9.43;;;;;;;14.93;46.89;96633.31;5045014;28;20125;-53
2021/04/25 09:34:28;;;;;;;14.93;9.90;;;;;;;14.96;46.27;96624.16;5038562;28;20065;-51
2021/04/25 09:37:13;;;;;;;16.52;9.98;;;;;;;15.54;44.45;96627.53;5037910;28;20506;-55
2021/04/25 09:39:41;;;;;;;;;;;;;;;15.58;43.75;96627.00;5038378;28;20076;-52
2021/04/25 09:42:08;;;;;;;16.33;10.40;;;;;;;15.78;42.60;96627.47;5037573;28;19968;-54
2021/04/25 09:44:37;;;;;;;16.20;9.88;;;;;;;15.31;45.64;96625.63;5034177;28;20072;-52
2021/04/25 09:47:06;;;;;;;15.48;9.98;;;;;;;15.28;43.94;96628.59;5035529;23;20115;-62
2021/04/25 09:49:42;;;;;;;13.85;8.60;;;;;;;15.02;46.73;96628.81;4989599;28;20069;-58
2021/04/25 09:52:12;;;;;;;18.33;11.07;;;;;;;15.14;45.42;96629.28;5020016;28;20077;-64
2021/04/25 09:54:41;;;;;;;16.40;10.43;;;;;;;15.35;44.50;96634.06;5027158;28;20049;-66
2021/04/25 09:57:32;;;;;;;17.55;9.82;;;;;;;15.60;43.65;96629.50;5007105;28;20061;-63
2021/04/25 09:59:59;;;;;;;15.13;9.10;;;;;;;15.18;44.07;96639.41;4986117;28;20062;-64
2021/04/25 10:02:29;;;;;;;21.17;14.65;;;;;;;15.72;43.66;96628.16;4984715;28;20084;-64
2021/04/25 10:05:06;;;;;;;19.65;12.60;;;;;;;16.29;42.45;96621.72;4993611;28;20073;-62
2021/04/25 10:07:35;;;;;;;14.82;8.80;;;;;;;15.63;43.92;96623.84;5005499;28;20054;-63
2021/04/25 10:10:13;;;;;;;14.00;8.80;;;;;;;15.58;44.61;96631.50;5001191;28;20089;-63
2021/04/25 10:12:41;;;;;;;16.33;10.15;;;;;;;15.92;43.35;96622.41;4992938;28;20054;-63
2021/04/25 10:15:11;;;;;;;14.30;9.93;;;;;;;15.68;44.49;96628.66;5004183;28;20045;-67
2021/04/25 10:17:45;;;;;;;15.57;10.23;;;;;;;15.79;44.12;96618.47;5001185;28;20074;-64
2021/04/25 10:20:14;;;;;;;13.82;9.63;;;;;;;15.70;44.40;96624.84;5010165;28;20061;-63
2021/04/25 10:22:44;;;;;;;18.65;8.95;;;;;;;15.14;45.08;96632.78;5007903;28;20062;-64
2021/04/25 10:25:16;;;;;;;14.43;9.60;;;;;;;15.40;44.17;96627.22;5008781;28;20578;-62
2021/04/25 10:27:48;;;;;;;15.27;10.13;;;;;;;16.12;42.36;96618.31;5005916;28;20052;-62
2021/04/25 10:30:17;;;;;;;17.02;10.38;;;;;;;15.77;41.90;96617.84;5008020;28;20524;-63
2021/04/25 10:32:45;;;;;;;19.75;11.93;;;;;;;15.59;42.36;96606.59;5006488;28;20073;-63
2021/04/25 10:35:18;;;;;;;19.52;9.85;;;;;;;15.46;43.48;96614.28;5006294;28;20065;-63
2021/04/25 10:37:48;;;;;;;12.98;9.10;;;;;;;15.72;42.55;96611.38;5007238;28;20084;-62
2021/04/25 10:40:28;;;;;;;14.93;10.32;;;;;;;16.23;43.89;96625.06;4998563;28;20054;-64
2021/04/25 10:42:59;;;;;;;14.95;9.38;;;;;;;16.06;43.89;96619.00;4989831;28;20445;-63
2021/04/25 10:45:31;;;;;;;17.02;9.65;;;;;;;15.66;43.46;96618.22;4985166;28;20112;-64
2021/04/25 10:48:35;;;;;;;15.50;9.90;;;;;;;16.28;43.93;96614.75;4969840;28;20045;-65
2021/04/25 10:51:22;;;;;;;;;;;;;;;16.41;41.24;96606.16;5026624;28;21338;-65
2021/04/25 10:54:03;;;;;;;16.27;9.95;;;;;;;16.38;41.29;96604.69;5003429;28;19921;-63
2021/04/25 10:56:37;;;;;;;12.07;8.65;;;;;;;15.76;42.21;96615.34;5023359;28;20046;-62
2021/04/25 10:59:23;;;;;;;16.58;9.32;;;;;;;15.86;42.69;96610.63;5020627;28;20045;-64
2021/04/25 11:01:51;;;;;;;13.88;9.65;;;;;;;15.65;42.58;96598.72;5018551;28;20065;-62
2021/04/25 11:04:54;;;;;;;16.23;10.32;;;;;;;16.07;43.60;96602.88;5021205;28;20674;-62
2021/04/25 11:07:43;;;;;;;11.02;7.78;;;;;;;16.29;41.95;96608.41;5022350;28;20112;-63
2021/04/25 11:10:16;;;;;;;13.40;9.35;;;;;;;16.24;41.65;96600.97;5026980;28;20077;-61
2021/04/25 11:12:46;;;;;;;14.00;9.63;;;;;;;16.27;39.95;96605.91;5026795;28;20087;-64
2021/04/25 11:15:50;;;;;;;15.98;7.32;;;;;;;16.09;40.09;96605.34;5008364;28;20122;-64
2021/04/25 11:18:51;;;;;;;11.20;7.57;;;;;;;15.97;39.90;96610.25;5024255;28;20069;-62
2021/04/25 11:21:50;;;;;;;10.48;7.80;;;;;;;15.77;41.14;96612.50;4971388;28;20449;-63
2021/04/25 11:24:37;;;;;;;11.63;8.70;;;;;;;16.45;39.63;96607.44;5022746;28;20065;-63
2021/04/25 11:27:07;;;;;;;13.68;8.60;;;;;;;16.51;39.97;96604.91;5026060;28;20323;-63
2021/04/25 11:29:59;;;;;;;11.35;8.00;;;;;;;16.58;38.95;96605.84;5025240;28;20455;-64
2021/04/25 11:32:40;;;;;;;18.45;11.25;;;;;;;16.15;38.21;96612.66;5025854;28;20069;-63